Aviation Digital Data Service (ADDS)

Output produced by METARs form (2017 UTC 31 January 2023)
found at http://www.aviationweather.gov/metar/data/
 
KJST 312013Z AUTO 32003KT 10SM OVC010 M06/M08 A3010 RMK AO2 T10611083
KJST 311954Z AUTO 32004KT 10SM OVC008 M06/M08 A3010 RMK AO2 CIG 008V012 SLP223 T10611083
KJST 311854Z AUTO 30006KT 7SM OVC006 M07/M08 A3012 RMK AO2 SLP231 T10671078
KJST 311754Z AUTO 32009KT 6SM BR OVC006 M06/M07 A3014 RMK AO2 SLP237 60000 T10611072 11044 21061 58009
KJST 311707Z AUTO 31010KT 4SM BR OVC005 M06/M07 A3017 RMK AO2 T10611072
KJST 311654Z AUTO 31010KT 4SM BR OVC004 M06/M07 A3017 RMK AO2 SLP248 T10611072
KJST 311614Z AUTO 33008KT 4SM BR OVC004 M06/M07 A3018 RMK AO2 T10611067
KJST 311554Z AUTO 31006KT 6SM BR OVC006 M06/M07 A3018 RMK AO2 SLP251 T10561067
KJST 311454Z AUTO 29007KT 10SM OVC008 M06/M07 A3017 RMK AO2 SLP245 60000 T10561072 51009
KJST 311354Z AUTO 30013KT 10SM OVC008 M06/M07 A3016 RMK AO2 SNE26 CIG 006V010 SLP242 P0000 T10561067
KJST 311344Z AUTO 31012KT 9SM OVC009 M06/M07 A3017 RMK AO2 SNE26 CIG 006V012 P0000 T10561067
KJST 311254Z AUTO 31012KT 3SM -SN BR SCT008 BKN012 OVC060 M05/M06 A3015 RMK AO2 SNE14B38 SLP236 P0000 T10501061
KJST 311246Z AUTO 30010KT 3SM -SN BR BKN008 OVC013 M05/M06 A3016 RMK AO2 SNE14B38 CIG 005V011 P0000 T10501061
KJST 311236Z AUTO 29011KT 7SM SCT006 OVC015 M05/M06 A3016 RMK AO2 SNE14 P0000 T10501056
KJST 311226Z AUTO 30011KT 6SM BR SCT007 OVC014 M05/M06 A3016 RMK AO2 SNE14 P0000 T10501056
KJST 311211Z AUTO 29009KT 4SM -SN BR BKN007 OVC014 M04/M06 A3016 RMK AO2 CIG 005V009 P0000 T10441056
KJST 311154Z AUTO 31011KT 2SM -SN BR BKN008 OVC012 M04/M06 A3014 RMK AO2 SNB1058 CIG 005V009 SLP231 P0000 60002 70003 T10441056 11022 21044 53013
KJST 311136Z AUTO 30011KT 2SM -SN BR BKN008 OVC011 M04/M06 A3015 RMK AO2 SNB1058 P0000 T10441056
KJST 311054Z AUTO 31016KT 9SM OVC005 M04/M05 A3012 RMK AO2 SNE50 SLP225 P0000 T10441050
KJST 311002Z AUTO 31011KT 3SM -SN BR BKN006 BKN024 OVC095 M04/M04 A3010 RMK AO2 P0000 T10391044
KJST 310954Z AUTO 31012KT 2SM -SN BR SCT006 BKN022 OVC095 M04/M04 A3011 RMK AO2 SLP217 P0001 T10391044
KJST 310941Z AUTO 30010KT 2SM -SN BR BKN006 BKN014 OVC022 M03/M04 A3011 RMK AO2 P0001 T10331044
KJST 310902Z AUTO 29009KT 1 3/4SM -SN BR OVC004 M03/M04 A3010 RMK AO2 P0000 T10331039
KJST 310854Z AUTO 29009KT 1 3/4SM -SN BR OVC005 M03/M04 A3010 RMK AO2 SLP212 P0000 60001 T10331039 51012
KJST 310823Z AUTO 31009KT 1 1/2SM -SN BR BKN005 BKN009 OVC022 M03/M04 A3009 RMK AO2 P0000 T10331039
KJST 310802Z AUTO 29009KT 2SM -SN BR BKN005 BKN011 OVC049 M03/M03 A3009 RMK AO2 P0000 T10281033
KJST 310754Z AUTO 30009KT 1 3/4SM -SN BR BKN005 BKN024 OVC050 M03/M03 A3009 RMK AO2 SLP209 P0000 T10281033
KJST 310745Z AUTO 31009KT 1 3/4SM -SN BR BKN005 BKN028 OVC050 M03/M03 A3009 RMK AO2 P0000 T10281033
KJST 310726Z AUTO 30010KT 2SM -SN BR BKN005 BKN043 OVC050 M03/M03 A3009 RMK AO2 P0000 T10281033
KJST 310713Z AUTO 30010KT 3SM -SN BR BKN005 OVC046 M03/M03 A3008 RMK AO2 P0000 T10281033
KJST 310705Z AUTO 30009KT 2SM -SN BR OVC004 M03/M03 A3007 RMK AO2 P0000 T10281033
KJST 310654Z AUTO 30008KT 1 1/2SM -SN BR OVC005 M03/M03 A3007 RMK AO2 SLP201 P0001 T10281028
KJST 310650Z AUTO 29009KT 1 3/4SM -SN BR OVC005 M03/M03 A3007 RMK AO2 P0001
KJST 310638Z AUTO 30009KT 4SM -SN BR BKN005 OVC035 M02/M03 A3007 RMK AO2 P0000 T10221028
KJST 310624Z AUTO 30009KT 2SM -SN BR BKN005 OVC035 M02/M03 A3007 RMK AO2 P0000 T10221028
KJST 310602Z AUTO 30009KT 3SM -SN BR BKN006 OVC035 M02/M03 A3007 RMK AO2 CIG 003V010 P0000 T10221028
KJST 310554Z AUTO 31011KT 1 3/4SM -SN BR BKN004 OVC009 M02/M02 A3006 RMK AO2 SLP197 P0000 60001 T10221022 10022 21022 58005
KJST 310551Z AUTO 30008KT 1 1/2SM -SN BR BKN004 OVC009 M02/M02 A3006 RMK AO2 CIG 003V008 P0000
KJST 310541Z AUTO 30009KT 2 1/2SM -SN BR BKN004 BKN009 OVC035 M02/M02 A3006 RMK AO2 P0000 T10221022
KJST 310521Z AUTO 30010KT 2 1/2SM -SN BR BKN006 BKN011 OVC037 M02/M02 A3007 RMK AO2 P0000 T10171022
KJST 310509Z AUTO 30010KT 1 1/2SM -SN BR BKN005 OVC011 M02/M02 A3007 RMK AO2 P0000 T10171022
KJST 310454Z AUTO 31010KT 2 1/2SM -SN BR OVC005 M02/M02 A3007 RMK AO2 CIG 003V009 SLP204 P0000 T10171017 400671017
KJST 310430Z AUTO 31008KT 2SM -SN BR OVC004 M01/M02 A3007 RMK AO2 CIG 003V007 P0000 T10111017
KJST 310422Z AUTO 30008KT 1 3/4SM -SN BR OVC004 M01/M02 A3007 RMK AO2 P0000 T10111017
KJST 310402Z AUTO 30009KT 2 1/2SM -SN BR BKN004 OVC011 M01/M02 A3007 RMK AO2 CIG 002V006 P0000 T10111017
KJST 310354Z AUTO 30011KT 4SM -SN BR BKN002 OVC011 M01/M01 A3007 RMK AO2 SNE24B49 CIG 002V006 SLP204 P0000 T10111011
KJST 310321Z AUTO 29006KT 3SM -SN BR OVC002 M01/M01 A3006 RMK AO2 P0000 T10061006
KJST 310307Z AUTO 30009KT 1 3/4SM -SN BR OVC002 M01/M01 A3007 RMK AO2 P0000 T10061006
KJST 310254Z AUTO 30010KT 1/2SM -SN FZFG VV002 M01/M01 A3008 RMK AO2 UPB03E12SNB36 SLP207 P0000 60001 T10061006 53003
KJST 310234Z AUTO 30008KT 3/4SM BR OVC002 00/00 A3007 RMK AO2 UPB03E12 P0000 T00000000
KJST 310203Z AUTO 31008KT 4SM UP BR OVC002 01/01 A3006 RMK AO2 UPB03 P0000 T00060006
KJST 310154Z AUTO 30010KT 1 1/4SM BR OVC002 01/01 A3007 RMK AO2 RAB0051E01UPB01E02B12E36SNB02E12B36E45 SLP202 P0000 T00110011
KJST 310146Z AUTO 30009KT 1 1/2SM BR OVC002 01/01 A3007 RMK AO2 VIS 1/2V5 RAB0051E01UPB01E02B12E36SNB02E12B36E45 P0000 T00110011
KJST 310144Z AUTO 29009KT 3SM -SN BR OVC002 01/01 A3007 RMK AO2 RAB0051E01UPB01E02B12E36SNB02E12B36 P0000 T00110011
KJST 310132Z AUTO 28006KT 1 3/4SM UP BR OVC002 01/01 A3007 RMK AO2 RAB0051E01UPB01E02B12SNB02E12 P0000 T00110011
KJST 310120Z AUTO 29008KT 3SM UP BR OVC002 01/01 A3007 RMK AO2 RAB0051E01UPB01E02B12SNB02E12 P0000 T00110011
KJST 310104Z AUTO 29010KT 1 1/4SM -SN BR OVC002 01/01 A3007 RMK AO2 VIS 1/2V3 RAB0051E01UPB01E02SNB02 P0000 T00110011
KJST 310050Z AUTO 31011KT 2 1/2SM BR OVC002 02/02 A3007 RMK AO2 RAB06E29UPB07E08 SLP200 P0001 T00170017
KJST 310049Z AUTO 31010KT 2SM BR OVC002 02/02 A3007 RMK AO2 RAB06E29UPB07E08 P0001
KJST 310037Z AUTO 31008KT 1/2SM FG VV002 02/02 A3007 RMK AO2 RAB06E29UPB07E08 P0001 T00170017
KJST 310027Z AUTO 31007KT 1 3/4SM -RA BR OVC002 02/02 A3006 RMK AO2 RAB06UPB07E08 P0001 T00170017
KJST 310024Z AUTO 31007KT 3SM -RA BR OVC002 02/02 A3006 RMK AO2 RAB06UPB07E08 P0001 T00170017
KJST 310021Z AUTO 31009KT 1SM -RA BR VV002 02/02 A3006 RMK AO2 RAB06UPB07E08 P0001 T00220022
KJST 310012Z AUTO 30007KT 1/4SM -RA FG VV002 02/02 A3006 RMK AO2 RAB06UPB07E08 P0000 T00220022
KJST 310004Z AUTO 31007KT 1/2SM FG VV002 02/02 A3007 RMK AO2 T00220022
KJST 302354Z AUTO 31009KT 1/4SM FG VV002 02/02 A3007 RMK AO2 RAE2259B33E42 SLP201 P0000 60000 T00220022 10067 20022 51012
KJST 302254Z AUTO 30009KT 1/4SM -RA FG VV002 03/03 A3006 RMK AO2 RAB44 SLP196 P0000 T00330033
KJST 302215Z AUTO 27008KT 1/4SM FG VV002 04/04 A3005 RMK AO2 T00390039
KJST 302211Z AUTO 29009KT 1/2SM FG VV003 04/04 A3006 RMK AO2 T00440039
KJST 302204Z AUTO 29010KT 3/4SM BR BKN005 OVC010 04/04 A3006 RMK AO2 T00440039
KJST 302202Z AUTO 29010KT 2SM BR BKN005 BKN010 OVC014 04/04 A3005 RMK AO2 T00440039
KJST 302154Z AUTO 31009KT 9SM SCT005 BKN012 OVC018 05/04 A3005 RMK AO2 SLP189 T00500044
KJST 302149Z AUTO 29008KT 10SM BKN008 OVC018 06/04 A3005 RMK AO2 CIG 006V013
KJST 302146Z AUTO 29008KT 10SM BKN011 OVC016 06/04 A3005 RMK AO2 T00560039
KJST 302054Z AUTO 24008KT 10SM BKN015 OVC021 06/04 A3003 RMK AO2 SLP184 T00610039 50005
KJST 301954Z AUTO 26009KT 10SM OVC017 07/04 A3004 RMK AO2 SLP185 T00670044
KJST 301854Z AUTO 27007KT 10SM BKN016 OVC025 07/04 A3003 RMK AO2 SLP182 T00670039
KJST 301846Z AUTO 27007KT 10SM BKN016 OVC023 07/04 A3003 RMK AO2 T00670039
KJST 301837Z AUTO 27006KT 10SM BKN014 OVC023 07/04 A3003 RMK AO2 T00670039
KJST 301827Z AUTO 28006KT 10SM OVC015 07/04 A3003 RMK AO2 T00670039
KJST 301754Z AUTO 21010KT 10SM BKN014 07/04 A3002 RMK AO2 SLP179 T00670039 10067 20033 58033
KJST 301736Z AUTO 21012KT 10SM OVC012 06/03 A3004 RMK AO2 T00560033
KJST 301724Z AUTO 20010KT 10SM BKN009 OVC015 06/04 A3005 RMK AO2 PRESFR T00560039
KJST 301654Z AUTO 21009KT 10SM OVC010 05/04 A3008 RMK AO2 CIG 008V014 SLP202 T00500039
KJST 301602Z AUTO 23008KT 10SM OVC014 04/04 A3012 RMK AO2 T00440039
KJST 301554Z AUTO 23008KT 10SM OVC015 04/04 A3012 RMK AO2 SLP215 T00440039
KJST 301544Z AUTO 23008KT 10SM SCT006 OVC015 04/04 A3012 RMK AO2 T00440039
KJST 301513Z AUTO 21007KT 6SM BR OVC006 04/04 A3012 RMK AO2 CIG 002V010 T00390039
KJST 301454Z AUTO 21007KT 4SM BR BKN002 OVC008 04/04 A3012 RMK AO2 SLP217 T00390039 51012
KJST 301440Z AUTO 21006KT 2 1/2SM BR OVC002 04/04 A3012 RMK AO2 T00390039
KJST 301354Z AUTO 22006KT 5SM BR BKN003 OVC014 03/03 A3012 RMK AO2 SLP215 T00330033
KJST 301254Z AUTO 20008KT 10SM OVC008 03/03 A3010 RMK AO2 CIG 007V012 SLP210 T00330028
KJST 301245Z AUTO 21009KT 10SM OVC010 03/03 A3010 RMK AO2 CIG 007V013 T00330028
KJST 301154Z AUTO 20006KT 10SM OVC007 03/03 A3009 RMK AO2 SLP205 60001 70002 T00330028 10033 20028 55006
KJST 301116Z AUTO 19006KT 3SM BR OVC006 03/03 A3008 RMK AO2 T00280028
KJST 301111Z AUTO 19005KT 1 1/2SM BR OVC006 03/03 A3008 RMK AO2 CIG 006V009 T00280028
KJST 301054Z AUTO 18003KT 2 1/2SM BR OVC005 03/03 A3008 RMK AO2 VIS 1 1/4V4 SLP202 T00280028
KJST 301050Z AUTO 18004KT 1SM BR OVC005 03/03 A3008 RMK AO2
KJST 301047Z AUTO 18004KT 1/2SM FG OVC004 03/03 A3008 RMK AO2 T00280028
KJST 301037Z AUTO 19004KT 1 3/4SM BR OVC003 03/03 A3009 RMK AO2 VIS 3/4V4 T00280028
KJST 301031Z AUTO 20004KT 3SM BR OVC003 03/03 A3009 RMK AO2 T00280028
KJST 301025Z AUTO 21003KT 1SM BR VV003 03/03 A3010 RMK AO2 T00330033
KJST 300954Z AUTO 24004KT 1/4SM FG VV003 03/03 A3011 RMK AO2 SLP212 T00330028
KJST 300936Z AUTO 24004KT 1/2SM FG VV003 03/03 A3011 RMK AO2 T00280028
KJST 300928Z AUTO 23004KT 1SM BR VV003 03/03 A3011 RMK AO2 T00330033
KJST 300903Z AUTO 22006KT 1/2SM FG VV002 03/03 A3011 RMK AO2 T00330033
KJST 300854Z AUTO 21006KT 1/4SM FG VV002 03/03 A3010 RMK AO2 SLP211 60001 T00330033 50002
KJST 300834Z AUTO 22005KT 1/2SM FG VV002 03/03 A3010 RMK AO2 T00330033
KJST 311722Z 3118/0118 31010KT 5SM BR VCSH OVC005 
     FM311900 31010KT 6SM BR VCSH OVC007 
     FM010000 30007KT 6SM -SN BR OVC015 
     FM011200 29009KT P6SM BKN015 
     FM011600 29009G16KT P6SM BKN015